Little Valley, Nevada Weather observations

Data are for 10 minute period ending at time listed.
 Day   Time    Ave.   Ave.  Ave.  Vector   Max.   Total    Solar   
  of    of     Air    Rel.  Wind   Wind    Wind  Precip.   Rad.    
Year   Day     Temp.  Hum.  Speed  Dir.    Gust                    
2016   (PST)    F      %     mph   deg.    mph     in.     W/m2    
------------------------------------------------------------------- 
 146    4:00   32.0    97    0.0     3      2.0   16.45       0  
 146    5:00   31.0    97    0.0   336      2.0   16.45       0  
 146    6:00   33.0    94    1.0   125      3.0   16.45      44  
 146    7:00   41.0    87    1.0   129      4.0   16.45     195  
 146    8:00   47.0    68    3.0    67      8.0   16.45     393  
 146    9:00   49.0    67    3.0    91      8.0   16.45     524  
 146   10:00   48.0    68    3.0    40      9.0   16.46     565  
 146   11:00   44.0    84    2.0   319     26.0   16.50     156  
 146   12:00   52.0    56    7.0    22     13.0   16.50     615  
 146   13:00   55.0    46    1.0    15     12.0   16.50     872  
 146   14:00   48.0    69    8.0   266     19.0   16.50     685  
 146   15:00   50.0    63    6.0   265     13.0   16.51     282  
 146   16:00   47.0    80    6.0   250     16.0   16.56     272  
 146   17:00   44.0    81    8.0   286     21.0   16.59     187  
 146   18:00   45.0    76    7.0   268     23.0   16.61     116  
 146   19:00   45.0    75    6.0   269     18.0   16.61      46  
 146   20:00   45.0    76    4.0   234     12.0   16.61       2  
 146   21:00   45.0    73    3.0   271     10.0   16.61       0  
 146   22:00   45.0    74    3.0   300     12.0   16.61       0  
 146   23:00   44.0    76    3.0   170     11.0   16.61       0  
 147    0:00   41.0    86    2.0   175      6.0   16.61       0  
 147    1:00   37.0    92    2.0   206      5.0   16.61       0  
 147    2:00   33.0    95    2.0   209      5.0   16.61       0  
 147    3:00   30.0    96    0.0   263      3.0   16.61       0  

Return to Little Valley, Nevada graphs page.


Western Regional Climate Center,wrcc@dri.edu